ADDS METAR Data INFO
IDs: Format: Raw Decoded Include TAF

Data at: 1514 UTC 11 Dec 2017

PAIW 111456Z AUTO 36028G34KT OVC018 M09/M10 A2951 RMK AO2 PK WND 36037/1414 SLP993 T10891100 58019 PWINO FZRANO $
PAIW 111356Z AUTO 01028G35KT FEW013 BKN019 OVC025 M09/M10 A2953 RMK AO2 PK WND 36037/1342 SLP002 T10941100 PWINO FZRANO $
PAIW 111340Z AUTO 01031G36KT FEW009 BKN016 OVC021 M09/M10 A2954 RMK AO2 PK WND 01037/1324 PWINO FZRANO $
PAIW 111256Z AUTO 01029G36KT OVC016 M09/M10 A2955 RMK AO2 PK WND 01042/1209 SLP008 T10941100 PWINO FZRANO $
PAIW 111156Z AUTO 01033G39KT OVC016 M09/M10 A2956 RMK AO2 PK WND 01041/1133 SLP013 70001 T10941100 11089 21094 58024 PWINO FZRANO $
PAIW 111056Z AUTO 01032G41KT OVC016 M09/M10 A2959 RMK AO2 PK WND 02041/1048 SLP021 T10891100 PWINO FZRANO $
PAIW 111023Z AUTO 01030G41KT OVC014 M09/M10 A2960 RMK AO2 PK WND 02041/1019 PWINO FZRANO $
PAIW 111010Z AUTO 02034G39KT OVC016 M09/M10 A2961 RMK AO2 PK WND 02039/1009 PWINO FZRANO $
PAIW 110956Z AUTO 01031G38KT OVC014 M09/M10 A2961 RMK AO2 PK WND 02041/0933 SLP029 T10891100 PWINO FZRANO $
PAIW 110856Z AUTO 01032G40KT OVC016 M09/M09 A2964 RMK AO2 PK WND 02041/0828 SLP037 T10891094 410831089 56008 PWINO FZRANO $
PAIW 110854Z AUTO 02036G40KT OVC016 M09/M09 A2964 RMK AO2 PK WND 02041/0828 410831089 PWINO FZRANO $
PAIW 110756Z AUTO 01035G42KT OVC014 M09/M09 A2965 RMK AO2 PK WND 02043/0701 SLP043 T10891094 PWINO FZRANO $
PAIW 110752Z AUTO 01033G39KT OVC014 M09/M09 A2966 RMK AO2 PK WND 02043/0701 PWINO FZRANO $
PAIW 110656Z AUTO 01033G39KT OVC016 M09/M09 A2968 RMK AO2 PK WND 02041/0638 SLP051 T10891094 PWINO FZRANO $
PAIW 110556Z AUTO 03033G40KT OVC016 M09/M10 A2971 RMK AO2 PK WND 03040/0554 SLP061 60000 T10891100 11083 21089 58017 PWINO FZRANO $
PAIW 110520Z AUTO 03028G38KT OVC016 M08/M10 A2972 RMK AO2 PK WND 03039/0510 PWINO FZRANO $
PAIW 110456Z AUTO 03028G36KT OVC014 M08/M09 A2973 RMK AO2 PK WND 02040/0439 SNEMM SLP070 P0000 T10831094 PWINO FZRANO $
PAIW 110403Z AUTO 02032G37KT OVC014 M08/M09 A2976 RMK AO2 PK WND 02037/0358 SNEMM P0000 PWINO FZRANO $
PAIW 110356Z AUTO 02033G37KT 1 1/4SM -SN BR OVC014 M08/M09 A2976 RMK AO2 PK WND 02037/0354 SLP078 P0000 T10831094 FZRANO
PAIW 110353Z AUTO 03029G35KT 1 1/4SM -SN BR OVC014 M08/M09 A2976 RMK AO2 PK WND 02036/0339 VIS 1V1 3/4 P0000 FZRANO
PAIW 110343Z AUTO 02030G36KT 1SM -SN BR OVC014 M08/M09 A2976 RMK AO2 PK WND 02036/0339 P0000 FZRANO
PAIW 110331Z AUTO 03028G35KT 1 1/4SM -SN BR OVC014 M08/M09 A2976 RMK AO2 PK WND 02036/0317 P0000 FZRANO
PAIW 110328Z AUTO 03027G35KT 1SM BR OVC016 M08/M09 A2976 RMK AO2 PK WND 02036/0317 SNE28 P0000 FZRANO
PAIW 110320Z AUTO 03029G36KT 1 1/4SM -SN BR OVC016 M08/M09 A2976 RMK AO2 PK WND 02036/0317 VIS 3/4V3 P0000 FZRANO
PAIW 110256Z AUTO 03033G37KT 2SM -SN BR OVC016 M08/M10 A2976 RMK AO2 PK WND 02038/0222 VIS 1 1/2V4 SNB28 SLP080 P0000 60000 T10831100 58014 FZRANO
PAIW 110248Z AUTO 03031G37KT 2SM -SN BR OVC014 M08/M09 A2976 RMK AO2 PK WND 02038/0222 SNB28 P0000 FZRANO
PAIW 110240Z AUTO 03028G35KT 1 3/4SM -SN BR OVC014 M08/M09 A2977 RMK AO2 PK WND 02038/0222 SNB28 P0000 FZRANO
PAIW 110156Z AUTO 02029G35KT OVC014 M08/M09 A2979 RMK AO2 PK WND 02035/0150 SNEMM SLP089 P0000 T10831094 PWINO FZRANO $
PAIW 110151Z AUTO 02031G35KT OVC014 M08/M09 A2979 RMK AO2 PK WND 02035/0150 SNEMM P0000 PWINO FZRANO $
PAIW 110106Z AUTO 03027G33KT 1/2SM -SN FZFG OVC014 M08/M09 A2980 RMK AO2 PK WND 03033/0106 P0000 FZRANO
PAIW 110056Z AUTO 03028G34KT 1/4SM -SN FZFG OVC014 M08/M09 A2980 RMK AO2 PK WND 02035/0033 SLP093 P0000 T10831094 FZRANO
PAIW 110029Z AUTO 02029G33KT 1/4SM SN FZFG OVC014 M08/M09 A2981 RMK AO2 PK WND 04034/0012 P0000 FZRANO
PAIW 110014Z AUTO 03028G34KT 1/2SM -SN FZFG OVC016 M08/M09 A2982 RMK AO2 PK WND 04034/0012 P0000 FZRANO
PAIW 102356Z AUTO 03023G31KT 1/4SM SN FZFG OVC016 M08/M09 A2982 RMK AO2 PK WND 02034/2340 SLP101 P0000 60000 T10831094 11083 21089 56013 FZRANO
PAIW 102346Z AUTO 02029G34KT 1/4SM SN FZFG OVC016 M08/M09 A2982 RMK AO2 PK WND 02034/2340 P0000 FZRANO
PAIW 102336Z AUTO 02028G34KT 1/2SM -SN FZFG OVC016 M08/M09 A2982 RMK AO2 PK WND 03034/2333 P0000 FZRANO
PAIW 102327Z AUTO 02028G34KT 1/4SM SN FZFG OVC016 M08/M10 A2983 RMK AO2 PK WND 02034/2326 P0000 FZRANO
PAIW 102256Z AUTO 02029G33KT 1/2SM -SN FZFG OVC016 M08/M10 A2984 RMK AO2 PK WND 02037/2220 SLP105 P0000 T10831100 FZRANO
PAIW 102233Z AUTO 02029G34KT 1/2SM -SN FZFG OVC016 M08/M10 A2984 RMK AO2 PK WND 02037/2220 P0000 FZRANO
PAIW 102217Z AUTO 02028G32KT 3/4SM -SN BR OVC018 M08/M10 A2984 RMK AO2 PK WND 02033/2215 P0000 FZRANO
PAIW 102209Z AUTO 02028G32KT 1SM -SN BR OVC018 M08/M10 A2985 RMK AO2 PK WND 02033/2200 P0000 FZRANO
PAIW 102156Z AUTO 02030G34KT 3/4SM -SN BR OVC018 M08/M10 A2985 RMK AO2 PK WND 02036/2130 SLP108 P0000 T10831100 FZRANO
PAIW 102149Z AUTO 03029G34KT 3/4SM -SN BR OVC018 M08/M10 A2985 RMK AO2 PK WND 02036/2130 P0000 FZRANO
PAIW 102145Z AUTO 02030G34KT 1 1/4SM -SN BR OVC018 M08/M10 A2985 RMK AO2 PK WND 02036/2130 P0000 FZRANO
PAIW 102129Z AUTO 01030G36KT 3/4SM -SN BR OVC018 M08/M11 A2985 RMK AO2 PK WND 01036/2129 P0000 FZRANO
PAIW 102111Z AUTO 03029G34KT 1 1/4SM -SN BR OVC018 M08/M11 A2986 RMK AO2 PK WND 02034/2109 P0000 FZRANO
PAIW 102056Z AUTO 02029G33KT 3/4SM -SN BR OVC018 M08/M11 A2986 RMK AO2 PK WND 02034/2042 SLP114 P0000 60000 T10831106 56001 FZRANO
PAIW 102048Z AUTO 02026G34KT 3/4SM -SN BR OVC018 M08/M11 A2987 RMK AO2 PK WND 02034/2042 VIS 1/2V1 1/2 P0000 FZRANO
PAIW 102004Z AUTO 03027G34KT 1 3/4SM -SN BR OVC020 M08/M11 A2986 RMK AO2 PK WND 03034/2002 VIS 1 1/4V3 P0000 FZRANO
PAIW 101956Z AUTO 03027G35KT 1SM -SN BR OVC020 M08/M11 A2986 RMK AO2 PK WND 02036/1929 SNB16 SLP114 P0000 T10831106 FZRANO
PAIW 101928Z AUTO 03027G36KT 1 1/4SM -SN BR OVC020 M08/M11 A2986 RMK AO2 PK WND 03036/1921 SNB16 P0000 FZRANO
PAIW 101856Z AUTO 03027G34KT FEW015 OVC022 M09/M11 A2987 RMK AO2 PK WND 03034/1855 SLP115 T10891106 PWINO FZRANO $
PAIW 101756Z AUTO 03027G36KT OVC017 M09/M10 A2987 RMK AO2 PK WND 02036/1748 SLP116 60001 T10891100 11089 21089 58005 PWINO FZRANO $
PAIW 101656Z AUTO 03028G35KT OVC017 M09/M10 A2988 RMK AO2 PK WND 03035/1654 SLP120 T10891100 PWINO FZRANO $
PAIW 101556Z AUTO 03029G36KT OVC019 M09/M11 A2989 RMK AO2 PK WND 03036/1555 SLP122 T10891106 PWINO FZRANO $
PAIW 101456Z AUTO 04029G35KT OVC019 M09/M11 A2988 RMK AO2 PK WND 03035/1452 SLP121 60001 T10891106 56012 PWINO FZRANO $
PAIW 101356Z AUTO 03028G35KT OVC019 M09/M11 A2990 RMK AO2 PK WND 03036/1321 SLP125 T10891106 PWINO FZRANO $
PAIW 101256Z AUTO 03027G36KT OVC021 M09/M11 A2991 RMK AO2 PK WND 03036/1251 SLP129 P0001 T10891106 PWINO FZRANO $
PAIW 101156Z AUTO 03027G31KT OVC021 M09/M10 A2992 RMK AO2 PK WND 03034/1108 SLP133 60000 70001 T10891100 11089 21089 58007 PWINO FZRANO $
PAIW 101056Z AUTO 03027G32KT OVC019 M09/M10 A2993 RMK AO2 PK WND 03033/1028 SLP137 T10891100 PWINO FZRANO $
PAIW 100956Z AUTO 03025G30KT OVC019 M09/M10 A2993 RMK AO2 PK WND 03034/0917 SLP138 T10891100 PWINO FZRANO $
PAIW 100856Z AUTO 03029G34KT OVC019 M09/M10 A2994 RMK AO2 PK WND 03034/0855 SLP140 60000 T10891100 410671089 56005 PWINO FZRANO $
PAIW 100756Z AUTO 03027G34KT OVC017 M09/M10 A2995 RMK AO2 PK WND 03034/0750 SNEMM SLP142 P0000 T10891100 PWINO FZRANO $
PAIW 100730Z AUTO 03027G34KT OVC017 M09/M10 A2994 RMK AO2 PK WND 04034/0721 SNEMM P0000 PWINO FZRANO $
PAIW 100722Z AUTO 03028G34KT 3/4SM -SN BR OVC017 M09/M10 A2994 RMK AO2 PK WND 04034/0721 P0000 FZRANO
PAIW 100714Z AUTO 03024G32KT 1 1/4SM -SN BR OVC017 M09/M10 A2994 RMK AO2 PK WND 02032/0710 P0000 FZRANO
PAIW 100706Z AUTO 03026KT 1SM -SN BR OVC017 M09/M10 A2994 RMK AO2 PK WND 04032/0701 P0000 FZRANO
PAIW 100656Z AUTO 03027G34KT 3/4SM -SN BR OVC017 M09/M10 A2995 RMK AO2 PK WND 04034/0649 SLP142 P0000 T10891100 FZRANO
PAIW 100649Z AUTO 04029G34KT 1/2SM SN FZFG OVC017 M09/M10 A2994 RMK AO2 PK WND 04034/0649 P0000 FZRANO
PAIW 100639Z AUTO 03025G32KT 1SM -SN BR OVC017 M09/M10 A2995 RMK AO2 PK WND 03034/0624 P0000 FZRANO
PAIW 100556Z AUTO 03028G34KT 3/4SM -SN BR OVC020 M09/M10 A2996 RMK AO2 PK WND 04034/0552 SLP145 P0000 60001 T10891100 11083 21089 56008 FZRANO
PAIW 100553Z AUTO 04028G34KT 3/4SM -SN BR OVC020 M09/M10 A2995 RMK AO2 PK WND 04034/0552 P0000 FZRANO
PAIW 100511Z AUTO 03027G32KT 1SM -SN BR OVC018 M09/M10 A2996 RMK AO2 PK WND 03032/0504 P0000 FZRANO
PAIW 100426Z AUTO 03023G31KT 3/4SM -SN BR OVC018 M09/M10 A2997 RMK AO2 PK WND 02032/0402 P0000 FZRANO
PAIW 100419Z AUTO 03024G29KT 1SM -SN BR OVC018 M08/M10 A2997 RMK AO2 PK WND 02032/0402 P0000 FZRANO
PAIW 100356Z AUTO 03025G29KT 1 1/2SM -SN BR OVC018 M08/M11 A2998 RMK AO2 PK WND 04030/0345 SLP154 P0000 T10831106 FZRANO